sensor_id;sensor_type;location;lat;lon;timestamp;P1;durP1;ratioP1;P2;durP2;ratioP2
52940;SDS011;62001;53.366;6.636;2023-01-24T00:02:05;25.10;;;16.83;;
52940;SDS011;62001;53.366;6.636;2023-01-24T00:04:31;25.70;;;16.73;;
52940;SDS011;62001;53.366;6.636;2023-01-24T00:06:57;22.20;;;15.83;;
52940;SDS011;62001;53.366;6.636;2023-01-24T00:09:23;24.63;;;16.73;;
52940;SDS011;62001;53.366;6.636;2023-01-24T00:11:48;23.90;;;16.30;;
52940;SDS011;62001;53.366;6.636;2023-01-24T00:14:14;22.90;;;16.27;;
52940;SDS011;62001;53.366;6.636;2023-01-24T00:16:40;23.97;;;16.90;;
52940;SDS011;62001;53.366;6.636;2023-01-24T00:19:06;27.47;;;18.10;;
52940;SDS011;62001;53.366;6.636;2023-01-24T00:21:32;25.00;;;17.23;;
52940;SDS011;62001;53.366;6.636;2023-01-24T00:23:58;25.23;;;17.73;;
52940;SDS011;62001;53.366;6.636;2023-01-24T00:26:23;25.20;;;17.67;;
52940;SDS011;62001;53.366;6.636;2023-01-24T00:28:50;28.90;;;18.13;;
52940;SDS011;62001;53.366;6.636;2023-01-24T00:31:15;27.90;;;17.83;;
52940;SDS011;62001;53.366;6.636;2023-01-24T00:33:42;27.77;;;18.10;;
52940;SDS011;62001;53.366;6.636;2023-01-24T00:36:08;28.47;;;19.00;;
52940;SDS011;62001;53.366;6.636;2023-01-24T00:38:35;30.23;;;17.90;;
52940;SDS011;62001;53.366;6.636;2023-01-24T00:41:01;27.07;;;18.73;;
52940;SDS011;62001;53.366;6.636;2023-01-24T00:43:27;29.00;;;19.67;;
52940;SDS011;62001;53.366;6.636;2023-01-24T00:45:54;26.33;;;19.07;;
52940;SDS011;62001;53.366;6.636;2023-01-24T00:48:20;28.53;;;18.70;;
52940;SDS011;62001;53.366;6.636;2023-01-24T00:50:47;29.60;;;19.13;;
52940;SDS011;62001;53.366;6.636;2023-01-24T00:53:13;32.17;;;19.77;;
52940;SDS011;62001;53.366;6.636;2023-01-24T00:55:45;28.67;;;18.60;;
52940;SDS011;62001;53.366;6.636;2023-01-24T00:58:12;29.57;;;18.63;;
52940;SDS011;62001;53.366;6.636;2023-01-24T01:00:39;31.83;;;20.37;;
52940;SDS011;62001;53.366;6.636;2023-01-24T01:03:05;31.33;;;20.33;;
52940;SDS011;62001;53.366;6.636;2023-01-24T01:05:32;29.83;;;20.03;;
52940;SDS011;62001;53.366;6.636;2023-01-24T01:07:58;29.57;;;19.40;;
52940;SDS011;62001;53.366;6.636;2023-01-24T01:10:24;32.30;;;19.77;;
52940;SDS011;62001;53.366;6.636;2023-01-24T01:12:50;29.77;;;19.57;;
52940;SDS011;62001;53.366;6.636;2023-01-24T01:15:15;30.90;;;20.17;;
52940;SDS011;62001;53.366;6.636;2023-01-24T01:17:41;33.47;;;20.70;;
52940;SDS011;62001;53.366;6.636;2023-01-24T01:20:07;33.17;;;20.50;;
52940;SDS011;62001;53.366;6.636;2023-01-24T01:22:34;32.57;;;21.63;;
52940;SDS011;62001;53.366;6.636;2023-01-24T01:24:59;31.37;;;21.10;;
52940;SDS011;62001;53.366;6.636;2023-01-24T01:27:25;35.23;;;21.23;;
52940;SDS011;62001;53.366;6.636;2023-01-24T01:29:51;32.83;;;20.80;;
52940;SDS011;62001;53.366;6.636;2023-01-24T01:32:17;30.70;;;20.10;;
52940;SDS011;62001;53.366;6.636;2023-01-24T01:34:42;32.67;;;19.80;;
52940;SDS011;62001;53.366;6.636;2023-01-24T01:37:08;31.87;;;20.83;;
52940;SDS011;62001;53.366;6.636;2023-01-24T01:39:34;32.97;;;20.20;;
52940;SDS011;62001;53.366;6.636;2023-01-24T01:42:00;31.73;;;20.27;;
52940;SDS011;62001;53.366;6.636;2023-01-24T01:44:27;34.80;;;21.50;;
52940;SDS011;62001;53.366;6.636;2023-01-24T01:47:25;33.50;;;21.53;;
52940;SDS011;62001;53.366;6.636;2023-01-24T01:52:40;34.67;;;20.80;;
52940;SDS011;62001;53.366;6.636;2023-01-24T01:55:17;30.77;;;19.53;;
52940;SDS011;62001;53.366;6.636;2023-01-24T01:57:45;30.43;;;20.13;;
52940;SDS011;62001;53.366;6.636;2023-01-24T02:00:15;30.30;;;19.90;;
52940;SDS011;62001;53.366;6.636;2023-01-24T02:02:45;32.43;;;21.03;;
52940;SDS011;62001;53.366;6.636;2023-01-24T02:05:14;32.88;;;21.60;;
52940;SDS011;62001;53.366;6.636;2023-01-24T02:07:46;33.53;;;20.33;;
52940;SDS011;62001;53.366;6.636;2023-01-24T02:10:24;32.15;;;20.65;;
52940;SDS011;62001;53.366;6.636;2023-01-24T02:13:12;33.13;;;21.67;;
52940;SDS011;62001;53.366;6.636;2023-01-24T02:15:38;33.33;;;22.17;;
52940;SDS011;62001;53.366;6.636;2023-01-24T02:18:23;33.60;;;20.00;;
52940;SDS011;62001;53.366;6.636;2023-01-24T02:20:48;31.57;;;20.63;;
52940;SDS011;62001;53.366;6.636;2023-01-24T02:26:10;32.97;;;21.37;;
52940;SDS011;62001;53.366;6.636;2023-01-24T02:28:37;31.73;;;20.97;;
52940;SDS011;62001;53.366;6.636;2023-01-24T02:31:12;32.90;;;21.13;;
52940;SDS011;62001;53.366;6.636;2023-01-24T02:33:38;30.97;;;20.03;;
52940;SDS011;62001;53.366;6.636;2023-01-24T02:41:42;35.10;;;21.33;;
52940;SDS011;62001;53.366;6.636;2023-01-24T02:44:10;32.47;;;21.50;;
52940;SDS011;62001;53.366;6.636;2023-01-24T02:46:42;35.13;;;22.17;;
52940;SDS011;62001;53.366;6.636;2023-01-24T02:49:09;31.03;;;20.57;;
52940;SDS011;62001;53.366;6.636;2023-01-24T02:51:36;34.53;;;21.67;;
52940;SDS011;62001;53.366;6.636;2023-01-24T02:54:21;31.43;;;20.27;;
52940;SDS011;62001;53.366;6.636;2023-01-24T02:56:47;34.27;;;23.10;;
52940;SDS011;62001;53.366;6.636;2023-01-24T02:59:31;34.37;;;21.57;;
52940;SDS011;62001;53.366;6.636;2023-01-24T03:01:57;33.37;;;19.83;;
52940;SDS011;62001;53.366;6.636;2023-01-24T03:04:23;33.50;;;20.23;;
52940;SDS011;62001;53.366;6.636;2023-01-24T03:06:49;34.67;;;21.50;;
52940;SDS011;62001;53.366;6.636;2023-01-24T03:09:15;33.30;;;21.47;;
52940;SDS011;62001;53.366;6.636;2023-01-24T03:11:48;32.00;;;19.85;;
52940;SDS011;62001;53.366;6.636;2023-01-24T03:14:15;29.63;;;19.50;;
52940;SDS011;62001;53.366;6.636;2023-01-24T03:17:00;34.27;;;21.83;;
52940;SDS011;62001;53.366;6.636;2023-01-24T03:19:45;33.50;;;21.50;;
52940;SDS011;62001;53.366;6.636;2023-01-24T03:22:29;31.50;;;20.33;;
52940;SDS011;62001;53.366;6.636;2023-01-24T03:25:13;31.60;;;19.97;;
52940;SDS011;62001;53.366;6.636;2023-01-24T03:28:04;25.17;;;17.50;;
52940;SDS011;62001;53.366;6.636;2023-01-24T03:30:49;25.93;;;17.10;;
52940;SDS011;62001;53.366;6.636;2023-01-24T03:33:33;24.27;;;16.20;;
52940;SDS011;62001;53.366;6.636;2023-01-24T03:36:17;25.53;;;16.47;;
52940;SDS011;62001;53.366;6.636;2023-01-24T03:38:56;25.03;;;17.70;;
52940;SDS011;62001;53.366;6.636;2023-01-24T03:41:41;20.00;;;14.27;;
52940;SDS011;62001;53.366;6.636;2023-01-24T03:44:06;19.63;;;14.10;;
52940;SDS011;62001;53.366;6.636;2023-01-24T03:46:32;25.77;;;16.83;;
52940;SDS011;62001;53.366;6.636;2023-01-24T03:48:58;29.07;;;18.77;;
52940;SDS011;62001;53.366;6.636;2023-01-24T03:51:24;28.10;;;16.93;;
52940;SDS011;62001;53.366;6.636;2023-01-24T03:54:08;23.40;;;16.93;;
52940;SDS011;62001;53.366;6.636;2023-01-24T03:56:34;23.10;;;16.17;;
52940;SDS011;62001;53.366;6.636;2023-01-24T03:59:00;29.80;;;19.33;;
52940;SDS011;62001;53.366;6.636;2023-01-24T04:01:26;29.37;;;18.93;;
52940;SDS011;62001;53.366;6.636;2023-01-24T04:03:52;29.43;;;19.37;;
52940;SDS011;62001;53.366;6.636;2023-01-24T04:06:18;18.17;;;13.00;;
52940;SDS011;62001;53.366;6.636;2023-01-24T04:08:44;25.97;;;17.70;;
52940;SDS011;62001;53.366;6.636;2023-01-24T04:11:09;26.10;;;17.80;;
52940;SDS011;62001;53.366;6.636;2023-01-24T04:13:35;31.67;;;20.37;;
52940;SDS011;62001;53.366;6.636;2023-01-24T04:16:01;29.63;;;19.53;;
52940;SDS011;62001;53.366;6.636;2023-01-24T04:18:27;29.50;;;19.80;;
52940;SDS011;62001;53.366;6.636;2023-01-24T04:20:53;28.83;;;18.73;;
52940;SDS011;62001;53.366;6.636;2023-01-24T04:23:19;24.60;;;15.97;;
52940;SDS011;62001;53.366;6.636;2023-01-24T04:25:49;16.83;;;12.73;;
52940;SDS011;62001;53.366;6.636;2023-01-24T04:28:22;25.47;;;17.17;;
52940;SDS011;62001;53.366;6.636;2023-01-24T04:30:48;20.53;;;14.40;;
52940;SDS011;62001;53.366;6.636;2023-01-24T04:33:20;21.07;;;13.90;;
52940;SDS011;62001;53.366;6.636;2023-01-24T04:35:46;23.83;;;16.20;;
52940;SDS011;62001;53.366;6.636;2023-01-24T04:38:12;23.53;;;16.17;;
52940;SDS011;62001;53.366;6.636;2023-01-24T04:40:38;24.43;;;16.83;;
52940;SDS011;62001;53.366;6.636;2023-01-24T04:43:05;23.90;;;16.63;;
52940;SDS011;62001;53.366;6.636;2023-01-24T04:45:31;23.77;;;16.10;;
52940;SDS011;62001;53.366;6.636;2023-01-24T04:47:57;21.87;;;15.57;;
52940;SDS011;62001;53.366;6.636;2023-01-24T04:50:23;23.80;;;15.90;;
52940;SDS011;62001;53.366;6.636;2023-01-24T04:52:49;22.20;;;15.57;;
52940;SDS011;62001;53.366;6.636;2023-01-24T04:55:15;25.83;;;16.70;;
52940;SDS011;62001;53.366;6.636;2023-01-24T04:57:41;22.23;;;15.83;;
52940;SDS011;62001;53.366;6.636;2023-01-24T05:00:08;22.57;;;15.93;;
52940;SDS011;62001;53.366;6.636;2023-01-24T05:02:35;24.03;;;16.70;;
52940;SDS011;62001;53.366;6.636;2023-01-24T05:05:02;23.47;;;15.93;;
52940;SDS011;62001;53.366;6.636;2023-01-24T05:07:29;21.27;;;15.67;;
52940;SDS011;62001;53.366;6.636;2023-01-24T05:09:55;19.60;;;14.33;;
52940;SDS011;62001;53.366;6.636;2023-01-24T05:12:21;21.17;;;15.27;;
52940;SDS011;62001;53.366;6.636;2023-01-24T05:14:47;19.23;;;14.93;;
52940;SDS011;62001;53.366;6.636;2023-01-24T05:17:12;20.87;;;14.13;;
52940;SDS011;62001;53.366;6.636;2023-01-24T05:19:38;20.80;;;15.10;;
52940;SDS011;62001;53.366;6.636;2023-01-24T05:22:04;18.03;;;14.13;;
52940;SDS011;62001;53.366;6.636;2023-01-24T05:24:30;21.93;;;15.43;;
52940;SDS011;62001;53.366;6.636;2023-01-24T05:26:56;20.63;;;15.70;;
52940;SDS011;62001;53.366;6.636;2023-01-24T05:29:21;23.73;;;15.80;;
52940;SDS011;62001;53.366;6.636;2023-01-24T05:31:47;24.83;;;16.80;;
52940;SDS011;62001;53.366;6.636;2023-01-24T05:34:13;23.03;;;16.53;;
52940;SDS011;62001;53.366;6.636;2023-01-24T05:36:39;24.93;;;17.20;;
52940;SDS011;62001;53.366;6.636;2023-01-24T05:39:05;25.77;;;17.63;;
52940;SDS011;62001;53.366;6.636;2023-01-24T05:41:30;26.37;;;17.40;;
52940;SDS011;62001;53.366;6.636;2023-01-24T05:43:56;23.70;;;16.47;;
52940;SDS011;62001;53.366;6.636;2023-01-24T05:46:22;23.90;;;16.73;;
52940;SDS011;62001;53.366;6.636;2023-01-24T05:48:50;24.07;;;17.13;;
52940;SDS011;62001;53.366;6.636;2023-01-24T05:51:16;25.93;;;17.23;;
52940;SDS011;62001;53.366;6.636;2023-01-24T05:53:44;27.40;;;17.77;;
52940;SDS011;62001;53.366;6.636;2023-01-24T05:56:13;28.43;;;18.77;;
52940;SDS011;62001;53.366;6.636;2023-01-24T05:58:44;26.97;;;19.03;;
52940;SDS011;62001;53.366;6.636;2023-01-24T06:01:12;28.63;;;19.77;;
52940;SDS011;62001;53.366;6.636;2023-01-24T06:03:40;29.77;;;19.83;;
52940;SDS011;62001;53.366;6.636;2023-01-24T06:06:07;30.17;;;20.40;;
52940;SDS011;62001;53.366;6.636;2023-01-24T06:08:34;32.47;;;23.20;;
52940;SDS011;62001;53.366;6.636;2023-01-24T06:11:06;32.63;;;23.37;;
52940;SDS011;62001;53.366;6.636;2023-01-24T06:13:35;31.97;;;20.73;;
52940;SDS011;62001;53.366;6.636;2023-01-24T06:16:05;28.97;;;19.50;;
52940;SDS011;62001;53.366;6.636;2023-01-24T06:18:36;27.60;;;20.03;;
52940;SDS011;62001;53.366;6.636;2023-01-24T06:21:10;29.07;;;20.17;;
52940;SDS011;62001;53.366;6.636;2023-01-24T06:23:43;29.90;;;20.20;;
52940;SDS011;62001;53.366;6.636;2023-01-24T06:26:09;29.47;;;19.80;;
52940;SDS011;62001;53.366;6.636;2023-01-24T06:28:36;33.70;;;20.47;;
52940;SDS011;62001;53.366;6.636;2023-01-24T06:31:04;36.47;;;22.97;;
52940;SDS011;62001;53.366;6.636;2023-01-24T06:36:21;38.70;;;23.53;;
52940;SDS011;62001;53.366;6.636;2023-01-24T06:38:51;36.17;;;24.33;;
52940;SDS011;62001;53.366;6.636;2023-01-24T06:41:17;35.63;;;23.13;;
52940;SDS011;62001;53.366;6.636;2023-01-24T06:43:44;29.67;;;20.33;;
52940;SDS011;62001;53.366;6.636;2023-01-24T06:46:10;33.33;;;21.10;;
52940;SDS011;62001;53.366;6.636;2023-01-24T06:48:38;32.57;;;22.43;;
52940;SDS011;62001;53.366;6.636;2023-01-24T06:51:04;31.40;;;21.80;;
52940;SDS011;62001;53.366;6.636;2023-01-24T06:53:31;33.00;;;22.47;;
52940;SDS011;62001;53.366;6.636;2023-01-24T06:55:58;33.10;;;22.00;;
52940;SDS011;62001;53.366;6.636;2023-01-24T06:58:24;32.10;;;21.13;;
52940;SDS011;62001;53.366;6.636;2023-01-24T07:00:51;29.60;;;19.40;;
52940;SDS011;62001;53.366;6.636;2023-01-24T07:03:18;30.47;;;19.67;;
52940;SDS011;62001;53.366;6.636;2023-01-24T07:05:44;31.13;;;20.20;;
52940;SDS011;62001;53.366;6.636;2023-01-24T07:08:09;30.13;;;20.77;;
52940;SDS011;62001;53.366;6.636;2023-01-24T07:10:36;32.07;;;21.67;;
52940;SDS011;62001;53.366;6.636;2023-01-24T07:13:04;32.57;;;22.10;;
52940;SDS011;62001;53.366;6.636;2023-01-24T07:15:29;33.47;;;22.13;;
52940;SDS011;62001;53.366;6.636;2023-01-24T07:17:55;35.17;;;22.50;;
52940;SDS011;62001;53.366;6.636;2023-01-24T07:20:22;31.00;;;20.23;;
52940;SDS011;62001;53.366;6.636;2023-01-24T07:22:48;31.53;;;21.73;;
52940;SDS011;62001;53.366;6.636;2023-01-24T07:25:14;32.27;;;21.73;;
52940;SDS011;62001;53.366;6.636;2023-01-24T07:27:43;35.27;;;22.00;;
52940;SDS011;62001;53.366;6.636;2023-01-24T07:30:10;30.57;;;21.23;;
52940;SDS011;62001;53.366;6.636;2023-01-24T07:32:37;32.43;;;21.33;;
52940;SDS011;62001;53.366;6.636;2023-01-24T07:35:04;29.10;;;20.37;;
52940;SDS011;62001;53.366;6.636;2023-01-24T07:37:31;32.60;;;21.47;;
52940;SDS011;62001;53.366;6.636;2023-01-24T07:39:57;28.07;;;20.03;;
52940;SDS011;62001;53.366;6.636;2023-01-24T07:42:23;30.70;;;21.43;;
52940;SDS011;62001;53.366;6.636;2023-01-24T07:44:48;32.40;;;22.17;;
52940;SDS011;62001;53.366;6.636;2023-01-24T07:47:14;35.80;;;22.70;;
52940;SDS011;62001;53.366;6.636;2023-01-24T07:49:40;37.47;;;22.90;;
52940;SDS011;62001;53.366;6.636;2023-01-24T07:52:06;34.70;;;22.63;;
52940;SDS011;62001;53.366;6.636;2023-01-24T07:54:32;35.80;;;23.07;;
52940;SDS011;62001;53.366;6.636;2023-01-24T07:56:59;33.37;;;23.30;;
52940;SDS011;62001;53.366;6.636;2023-01-24T07:59:25;34.30;;;23.33;;
52940;SDS011;62001;53.366;6.636;2023-01-24T08:01:51;32.73;;;22.70;;
52940;SDS011;62001;53.366;6.636;2023-01-24T08:04:17;32.23;;;22.07;;
52940;SDS011;62001;53.366;6.636;2023-01-24T08:06:43;34.67;;;23.23;;
52940;SDS011;62001;53.366;6.636;2023-01-24T08:09:29;32.57;;;21.83;;
52940;SDS011;62001;53.366;6.636;2023-01-24T08:11:55;27.63;;;18.90;;
52940;SDS011;62001;53.366;6.636;2023-01-24T08:14:21;31.37;;;19.67;;
52940;SDS011;62001;53.366;6.636;2023-01-24T08:16:48;27.03;;;19.27;;
52940;SDS011;62001;53.366;6.636;2023-01-24T08:19:14;26.07;;;17.90;;
52940;SDS011;62001;53.366;6.636;2023-01-24T08:21:40;26.67;;;18.50;;
52940;SDS011;62001;53.366;6.636;2023-01-24T08:24:06;27.70;;;18.93;;
52940;SDS011;62001;53.366;6.636;2023-01-24T08:26:32;27.17;;;18.70;;
52940;SDS011;62001;53.366;6.636;2023-01-24T08:28:58;29.37;;;19.80;;
52940;SDS011;62001;53.366;6.636;2023-01-24T08:31:23;29.47;;;20.77;;
52940;SDS011;62001;53.366;6.636;2023-01-24T08:33:49;31.90;;;20.00;;
52940;SDS011;62001;53.366;6.636;2023-01-24T08:36:17;29.53;;;20.53;;
52940;SDS011;62001;53.366;6.636;2023-01-24T08:38:47;29.52;;;19.92;;
52940;SDS011;62001;53.366;6.636;2023-01-24T08:41:13;29.83;;;20.40;;
52940;SDS011;62001;53.366;6.636;2023-01-24T08:43:39;28.47;;;19.37;;
52940;SDS011;62001;53.366;6.636;2023-01-24T08:46:04;26.80;;;19.23;;
52940;SDS011;62001;53.366;6.636;2023-01-24T08:48:30;26.97;;;18.07;;
52940;SDS011;62001;53.366;6.636;2023-01-24T08:50:56;26.27;;;17.93;;
52940;SDS011;62001;53.366;6.636;2023-01-24T08:53:22;26.50;;;17.83;;
52940;SDS011;62001;53.366;6.636;2023-01-24T08:55:49;25.73;;;18.13;;
52940;SDS011;62001;53.366;6.636;2023-01-24T08:58:15;26.87;;;19.30;;
52940;SDS011;62001;53.366;6.636;2023-01-24T09:00:41;29.50;;;19.60;;
52940;SDS011;62001;53.366;6.636;2023-01-24T09:03:08;29.80;;;19.43;;
52940;SDS011;62001;53.366;6.636;2023-01-24T09:05:36;29.37;;;20.03;;
52940;SDS011;62001;53.366;6.636;2023-01-24T09:08:03;32.17;;;20.27;;
52940;SDS011;62001;53.366;6.636;2023-01-24T09:10:30;32.07;;;21.70;;
52940;SDS011;62001;53.366;6.636;2023-01-24T09:12:56;31.83;;;21.33;;
52940;SDS011;62001;53.366;6.636;2023-01-24T09:15:22;33.97;;;21.27;;
52940;SDS011;62001;53.366;6.636;2023-01-24T09:17:48;30.10;;;21.50;;
52940;SDS011;62001;53.366;6.636;2023-01-24T09:20:14;28.73;;;20.53;;
52940;SDS011;62001;53.366;6.636;2023-01-24T09:22:41;32.43;;;20.90;;
52940;SDS011;62001;53.366;6.636;2023-01-24T09:25:07;29.90;;;20.37;;
52940;SDS011;62001;53.366;6.636;2023-01-24T09:27:34;29.80;;;20.07;;
52940;SDS011;62001;53.366;6.636;2023-01-24T09:30:00;26.40;;;18.77;;
52940;SDS011;62001;53.366;6.636;2023-01-24T09:32:26;26.60;;;18.57;;
52940;SDS011;62001;53.366;6.636;2023-01-24T09:34:53;28.17;;;19.53;;
52940;SDS011;62001;53.366;6.636;2023-01-24T09:37:20;29.63;;;19.53;;
52940;SDS011;62001;53.366;6.636;2023-01-24T09:39:47;28.40;;;18.97;;
52940;SDS011;62001;53.366;6.636;2023-01-24T09:50:16;29.87;;;19.13;;
52940;SDS011;62001;53.366;6.636;2023-01-24T09:52:48;28.63;;;19.90;;
52940;SDS011;62001;53.366;6.636;2023-01-24T09:55:22;30.00;;;20.10;;
52940;SDS011;62001;53.366;6.636;2023-01-24T09:57:54;29.93;;;20.33;;
52940;SDS011;62001;53.366;6.636;2023-01-24T10:00:33;28.60;;;18.77;;
52940;SDS011;62001;53.366;6.636;2023-01-24T10:03:18;29.30;;;18.90;;
52940;SDS011;62001;53.366;6.636;2023-01-24T10:05:50;28.50;;;19.90;;
52940;SDS011;62001;53.366;6.636;2023-01-24T10:14:32;31.57;;;20.70;;
52940;SDS011;62001;53.366;6.636;2023-01-24T10:25:05;31.07;;;21.37;;
52940;SDS011;62001;53.366;6.636;2023-01-24T10:27:46;32.83;;;20.10;;
52940;SDS011;62001;53.366;6.636;2023-01-24T10:30:25;27.23;;;18.83;;
52940;SDS011;62001;53.366;6.636;2023-01-24T10:32:58;29.27;;;19.40;;
52940;SDS011;62001;53.366;6.636;2023-01-24T10:36:15;27.70;;;19.40;;
52940;SDS011;62001;53.366;6.636;2023-01-24T10:38:15;26.83;;;19.13;;
52940;SDS011;62001;53.366;6.636;2023-01-24T10:40:55;27.97;;;19.33;;
52940;SDS011;62001;53.366;6.636;2023-01-24T10:43:29;27.67;;;19.50;;
52940;SDS011;62001;53.366;6.636;2023-01-24T10:51:15;23.90;;;17.57;;
52940;SDS011;62001;53.366;6.636;2023-01-24T10:53:42;23.67;;;17.33;;
52940;SDS011;62001;53.366;6.636;2023-01-24T10:56:09;27.70;;;19.10;;
52940;SDS011;62001;53.366;6.636;2023-01-24T10:58:40;30.87;;;21.30;;
52940;SDS011;62001;53.366;6.636;2023-01-24T11:01:18;30.23;;;21.53;;
52940;SDS011;62001;53.366;6.636;2023-01-24T11:03:46;30.60;;;20.97;;
52940;SDS011;62001;53.366;6.636;2023-01-24T11:09:10;28.27;;;20.40;;
52940;SDS011;62001;53.366;6.636;2023-01-24T11:11:44;31.93;;;20.10;;
52940;SDS011;62001;53.366;6.636;2023-01-24T11:14:21;28.40;;;19.90;;
52940;SDS011;62001;53.366;6.636;2023-01-24T11:16:55;28.47;;;20.13;;
52940;SDS011;62001;53.366;6.636;2023-01-24T11:19:29;27.20;;;19.02;;
52940;SDS011;62001;53.366;6.636;2023-01-24T11:21:58;28.97;;;20.23;;
52940;SDS011;62001;53.366;6.636;2023-01-24T11:24:26;31.20;;;22.70;;
52940;SDS011;62001;53.366;6.636;2023-01-24T11:29:28;33.50;;;22.97;;
52940;SDS011;62001;53.366;6.636;2023-01-24T11:31:55;34.80;;;25.97;;
52940;SDS011;62001;53.366;6.636;2023-01-24T11:39:45;33.13;;;23.33;;
52940;SDS011;62001;53.366;6.636;2023-01-24T11:48:06;32.13;;;23.33;;
52940;SDS011;62001;53.366;6.636;2023-01-24T11:51:24;31.57;;;22.37;;
52940;SDS011;62001;53.366;6.636;2023-01-24T12:21:08;35.90;;;26.50;;
52940;SDS011;62001;53.366;6.636;2023-01-24T12:26:39;40.13;;;27.43;;
52940;SDS011;62001;53.366;6.636;2023-01-24T12:36:59;34.83;;;25.43;;
52940;SDS011;62001;53.366;6.636;2023-01-24T12:39:46;38.47;;;26.33;;
52940;SDS011;62001;53.366;6.636;2023-01-24T12:43:30;39.00;;;26.83;;
52940;SDS011;62001;53.366;6.636;2023-01-24T12:51:20;33.70;;;24.73;;
52940;SDS011;62001;53.366;6.636;2023-01-24T12:54:07;39.43;;;28.07;;
52940;SDS011;62001;53.366;6.636;2023-01-24T12:56:57;42.43;;;29.13;;
52940;SDS011;62001;53.366;6.636;2023-01-24T12:59:28;39.28;;;26.77;;
52940;SDS011;62001;53.366;6.636;2023-01-24T13:04:57;32.37;;;24.40;;
52940;SDS011;62001;53.366;6.636;2023-01-24T13:08:06;32.87;;;23.30;;
52940;SDS011;62001;53.366;6.636;2023-01-24T13:19:32;39.60;;;26.90;;
52940;SDS011;62001;53.366;6.636;2023-01-24T13:22:31;42.77;;;28.83;;
52940;SDS011;62001;53.366;6.636;2023-01-24T13:27:53;40.73;;;28.50;;
52940;SDS011;62001;53.366;6.636;2023-01-24T13:30:31;41.23;;;28.00;;
52940;SDS011;62001;53.366;6.636;2023-01-24T13:33:19;40.53;;;27.80;;
52940;SDS011;62001;53.366;6.636;2023-01-24T13:35:52;42.30;;;28.10;;
52940;SDS011;62001;53.366;6.636;2023-01-24T13:38:38;39.17;;;26.70;;
52940;SDS011;62001;53.366;6.636;2023-01-24T13:41:31;37.33;;;25.73;;
52940;SDS011;62001;53.366;6.636;2023-01-24T13:51:57;42.37;;;27.20;;
52940;SDS011;62001;53.366;6.636;2023-01-24T14:07:55;38.43;;;25.60;;
52940;SDS011;62001;53.366;6.636;2023-01-24T14:10:34;36.20;;;24.50;;
52940;SDS011;62001;53.366;6.636;2023-01-24T14:15:49;42.10;;;26.33;;
52940;SDS011;62001;53.366;6.636;2023-01-24T14:21:18;39.43;;;27.23;;
52940;SDS011;62001;53.366;6.636;2023-01-24T14:23:49;40.30;;;27.83;;
52940;SDS011;62001;53.366;6.636;2023-01-24T14:26:23;40.57;;;27.20;;
52940;SDS011;62001;53.366;6.636;2023-01-24T14:28:55;43.10;;;28.37;;
52940;SDS011;62001;53.366;6.636;2023-01-24T14:31:31;42.00;;;28.33;;
52940;SDS011;62001;53.366;6.636;2023-01-24T14:36:45;39.80;;;26.03;;
52940;SDS011;62001;53.366;6.636;2023-01-24T14:41:42;39.67;;;26.37;;
52940;SDS011;62001;53.366;6.636;2023-01-24T14:44:19;39.87;;;26.27;;
52940;SDS011;62001;53.366;6.636;2023-01-24T14:46:54;37.93;;;24.60;;
52940;SDS011;62001;53.366;6.636;2023-01-24T14:49:30;42.80;;;26.50;;
52940;SDS011;62001;53.366;6.636;2023-01-24T14:51:58;40.33;;;26.73;;
52940;SDS011;62001;53.366;6.636;2023-01-24T14:54:25;42.10;;;27.03;;
52940;SDS011;62001;53.366;6.636;2023-01-24T14:56:51;38.17;;;25.50;;
52940;SDS011;62001;53.366;6.636;2023-01-24T14:59:17;38.20;;;24.93;;
52940;SDS011;62001;53.366;6.636;2023-01-24T15:01:45;36.83;;;23.80;;
52940;SDS011;62001;53.366;6.636;2023-01-24T15:04:22;37.47;;;24.77;;
52940;SDS011;62001;53.366;6.636;2023-01-24T15:07:03;36.00;;;24.70;;
52940;SDS011;62001;53.366;6.636;2023-01-24T15:09:35;35.73;;;23.53;;
52940;SDS011;62001;53.366;6.636;2023-01-24T15:15:00;38.73;;;24.23;;
52940;SDS011;62001;53.366;6.636;2023-01-24T15:17:28;35.17;;;22.43;;
52940;SDS011;62001;53.366;6.636;2023-01-24T15:19:59;39.17;;;24.37;;
52940;SDS011;62001;53.366;6.636;2023-01-24T15:22:34;36.33;;;23.17;;
52940;SDS011;62001;53.366;6.636;2023-01-24T15:25:03;35.35;;;22.98;;
52940;SDS011;62001;53.366;6.636;2023-01-24T15:27:43;35.73;;;23.33;;
52940;SDS011;62001;53.366;6.636;2023-01-24T15:30:11;35.57;;;23.90;;
52940;SDS011;62001;53.366;6.636;2023-01-24T15:32:40;37.90;;;22.95;;
52940;SDS011;62001;53.366;6.636;2023-01-24T15:35:26;36.43;;;23.37;;
52940;SDS011;62001;53.366;6.636;2023-01-24T15:38:06;37.00;;;23.37;;
52940;SDS011;62001;53.366;6.636;2023-01-24T15:40:35;36.57;;;23.63;;
52940;SDS011;62001;53.366;6.636;2023-01-24T15:43:11;37.67;;;23.87;;
52940;SDS011;62001;53.366;6.636;2023-01-24T15:46:04;35.63;;;22.47;;
52940;SDS011;62001;53.366;6.636;2023-01-24T15:48:56;33.37;;;21.50;;
52940;SDS011;62001;53.366;6.636;2023-01-24T15:51:27;35.40;;;20.90;;
52940;SDS011;62001;53.366;6.636;2023-01-24T15:53:57;34.77;;;22.63;;
52940;SDS011;62001;53.366;6.636;2023-01-24T15:56:22;35.47;;;22.30;;
52940;SDS011;62001;53.366;6.636;2023-01-24T15:58:49;35.33;;;22.60;;
52940;SDS011;62001;53.366;6.636;2023-01-24T16:01:17;32.07;;;21.47;;
52940;SDS011;62001;53.366;6.636;2023-01-24T16:03:44;32.83;;;21.87;;
52940;SDS011;62001;53.366;6.636;2023-01-24T16:06:10;37.23;;;22.97;;
52940;SDS011;62001;53.366;6.636;2023-01-24T16:08:36;33.67;;;21.60;;
52940;SDS011;62001;53.366;6.636;2023-01-24T16:11:02;35.83;;;23.63;;
52940;SDS011;62001;53.366;6.636;2023-01-24T16:16:10;33.88;;;22.73;;
52940;SDS011;62001;53.366;6.636;2023-01-24T16:18:39;34.23;;;21.97;;
52940;SDS011;62001;53.366;6.636;2023-01-24T16:21:08;38.77;;;23.90;;
52940;SDS011;62001;53.366;6.636;2023-01-24T16:23:34;34.90;;;22.83;;
52940;SDS011;62001;53.366;6.636;2023-01-24T16:26:00;35.47;;;23.17;;
52940;SDS011;62001;53.366;6.636;2023-01-24T16:28:26;36.03;;;22.57;;
52940;SDS011;62001;53.366;6.636;2023-01-24T16:30:54;36.97;;;23.00;;
52940;SDS011;62001;53.366;6.636;2023-01-24T16:33:25;32.67;;;21.50;;
52940;SDS011;62001;53.366;6.636;2023-01-24T16:35:51;35.00;;;22.30;;
52940;SDS011;62001;53.366;6.636;2023-01-24T16:38:17;34.13;;;22.53;;
52940;SDS011;62001;53.366;6.636;2023-01-24T16:40:43;36.33;;;22.40;;
52940;SDS011;62001;53.366;6.636;2023-01-24T16:43:18;32.17;;;21.30;;
52940;SDS011;62001;53.366;6.636;2023-01-24T16:45:47;31.97;;;21.57;;
52940;SDS011;62001;53.366;6.636;2023-01-24T16:48:14;29.73;;;19.33;;
52940;SDS011;62001;53.366;6.636;2023-01-24T16:50:41;35.47;;;20.90;;
52940;SDS011;62001;53.366;6.636;2023-01-24T16:53:08;30.40;;;20.40;;
52940;SDS011;62001;53.366;6.636;2023-01-24T16:55:34;30.07;;;19.37;;
52940;SDS011;62001;53.366;6.636;2023-01-24T16:58:03;28.93;;;20.13;;
52940;SDS011;62001;53.366;6.636;2023-01-24T17:00:30;29.20;;;20.00;;
52940;SDS011;62001;53.366;6.636;2023-01-24T17:02:56;31.47;;;21.23;;
52940;SDS011;62001;53.366;6.636;2023-01-24T17:05:24;30.00;;;20.53;;
52940;SDS011;62001;53.366;6.636;2023-01-24T17:07:51;29.50;;;21.30;;
52940;SDS011;62001;53.366;6.636;2023-01-24T17:10:17;31.50;;;21.10;;
52940;SDS011;62001;53.366;6.636;2023-01-24T17:12:43;30.77;;;20.57;;